Time;durP1;ratioP1;P1;durP2;ratioP2;P2;SDS_P1;SDS_P2;PMS_P1;PMS_P2;Temp;Humidity;BMP_temperature;BMP_pressure;BME280_temperature;BME280_humidity;BME280_pressure;Samples;Min_cycle;Max_cycle;Signal;HPM_P1;HPM_P2
2022/09/15 00:01:02;;;;;;;2.90;1.10;;;;;;;19.99;100.00;99456.84;4984477;28;20224;-64
2022/09/15 00:03:30;;;;;;;3.60;1.40;;;;;;;19.96;100.00;99458.16;4985445;28;20213;-64
2022/09/15 00:05:57;;;;;;;3.27;1.40;;;;;;;19.96;100.00;99470.78;4986187;28;20210;-64
2022/09/15 00:08:26;;;;;;;4.43;1.23;;;;;;;19.96;100.00;99462.72;4985154;28;20238;-65
2022/09/15 00:11:03;;;;;;;5.47;1.50;;;;;;;19.96;100.00;99465.41;4986512;28;20241;-65
2022/09/15 00:13:30;;;;;;;3.37;1.73;;;;;;;19.97;100.00;99459.78;4986087;28;20212;-64
2022/09/15 00:15:58;;;;;;;2.97;1.40;;;;;;;20.06;100.00;99462.94;4983646;28;20672;-64
2022/09/15 00:18:26;;;;;;;3.57;1.57;;;;;;;20.07;100.00;99454.63;4985659;28;20215;-65
2022/09/15 00:20:53;;;;;;;4.43;1.77;;;;;;;20.11;100.00;99455.81;4982579;28;20246;-65
2022/09/15 00:23:21;;;;;;;4.60;1.80;;;;;;;20.03;100.00;99448.09;4985372;28;20214;-64
2022/09/15 00:25:52;;;;;;;4.60;1.60;;;;;;;20.01;100.00;99444.00;4983716;28;20265;-64
2022/09/15 00:28:22;;;;;;;3.33;1.57;;;;;;;20.00;100.00;99445.03;4984120;28;20241;-64
2022/09/15 00:30:52;;;;;;;3.53;1.60;;;;;;;19.98;100.00;99439.88;4982052;28;20210;-64
2022/09/15 00:33:21;;;;;;;3.77;1.53;;;;;;;20.04;100.00;99438.16;4986900;28;20250;-64
2022/09/15 00:35:51;;;;;;;3.73;1.60;;;;;;;20.06;100.00;99438.72;4984211;28;20579;-64
2022/09/15 00:38:20;;;;;;;3.40;1.70;;;;;;;20.11;100.00;99434.28;4985649;28;20215;-64
2022/09/15 00:40:51;;;;;;;3.50;2.10;;;;;;;20.09;100.00;99435.56;4985416;28;20206;-64
2022/09/15 00:43:21;;;;;;;4.30;1.87;;;;;;;20.11;100.00;99438.84;4982709;28;20210;-64
2022/09/15 00:45:49;;;;;;;5.73;2.10;;;;;;;20.07;100.00;99434.97;4984000;28;20263;-64
2022/09/15 00:48:20;;;;;;;6.87;2.00;;;;;;;20.16;100.00;99436.25;4990260;28;20240;-64
2022/09/15 00:50:53;;;;;;;3.43;1.87;;;;;;;20.16;100.00;99441.63;4986631;28;20938;-64
2022/09/15 00:53:22;;;;;;;3.97;1.80;;;;;;;20.20;100.00;99438.25;4987170;28;20210;-65
2022/09/15 00:55:52;;;;;;;3.77;2.13;;;;;;;20.28;100.00;99440.59;4986910;28;20261;-65
2022/09/15 00:58:25;;;;;;;8.70;2.37;;;;;;;20.34;100.00;99436.16;4985861;28;20242;-65
2022/09/15 01:00:57;;;;;;;4.63;2.40;;;;;;;20.36;100.00;99436.75;4987192;28;20210;-65
2022/09/15 01:03:26;;;;;;;4.23;2.17;;;;;;;20.42;100.00;99443.03;4987318;28;20250;-65
2022/09/15 01:05:57;;;;;;;6.80;2.30;;;;;;;20.34;100.00;99438.84;4990185;28;20261;-65
2022/09/15 01:08:28;;;;;;;10.30;2.80;;;;;;;20.35;100.00;99439.66;4988064;28;20340;-65
2022/09/15 01:10:58;;;;;;;8.33;2.47;;;;;;;20.36;100.00;99436.75;4989997;28;20210;-64
2022/09/15 01:13:26;;;;;;;4.10;2.10;;;;;;;20.37;100.00;99441.06;4985950;28;20213;-64
2022/09/15 01:16:04;;;;;;;5.13;2.43;;;;;;;20.37;100.00;99438.38;4983747;28;20285;-65
2022/09/15 01:18:42;;;;;;;6.50;1.97;;;;;;;20.40;100.00;99432.53;4984045;28;20213;-65
2022/09/15 01:21:20;;;;;;;4.67;1.80;;;;;;;20.35;100.00;99428.91;4986525;28;20210;-65
2022/09/15 01:24:19;;;;;;;5.73;2.10;;;;;;;20.39;100.00;99438.16;4986495;28;20730;-64
2022/09/15 01:26:58;;;;;;;4.07;2.07;;;;;;;20.33;100.00;99431.78;4984733;28;20964;-64
2022/09/15 01:29:50;;;;;;;5.47;2.03;;;;;;;20.27;100.00;99428.19;4986383;28;20284;-64
2022/09/15 01:35:14;;;;;;;6.37;1.70;;;;;;;20.36;100.00;99423.28;4987429;28;20609;-64
2022/09/15 01:37:46;;;;;;;3.57;1.80;;;;;;;20.34;100.00;99411.94;4987063;28;20210;-64
2022/09/15 01:40:17;;;;;;;3.13;1.53;;;;;;;20.31;100.00;99415.09;4980947;28;20206;-64
2022/09/15 01:42:47;;;;;;;3.10;1.70;;;;;;;20.37;100.00;99416.84;4987391;28;20274;-64
2022/09/15 01:45:21;;;;;;;3.40;1.67;;;;;;;20.39;100.00;99420.13;4987016;28;20210;-65
2022/09/15 01:47:53;;;;;;;5.63;1.73;;;;;;;20.35;100.00;99418.94;4985433;28;20210;-65
2022/09/15 01:50:24;;;;;;;5.83;1.70;;;;;;;20.32;100.00;99419.38;4987245;28;20250;-65
2022/09/15 01:52:57;;;;;;;4.97;1.97;;;;;;;20.30;100.00;99418.81;4984226;28;20297;-65
2022/09/15 01:55:32;;;;;;;6.63;1.83;;;;;;;20.26;100.00;99414.94;4984323;28;20211;-65
2022/09/15 01:57:59;;;;;;;6.33;2.00;;;;;;;20.24;100.00;99415.19;4984861;28;20209;-65
2022/09/15 02:00:30;;;;;;;3.30;1.57;;;;;;;20.21;100.00;99410.28;4984136;28;20616;-65
2022/09/15 02:03:04;;;;;;;4.03;1.50;;;;;;;20.25;100.00;99416.00;4986127;28;20210;-65
2022/09/15 02:05:37;;;;;;;3.50;1.80;;;;;;;20.20;100.00;99408.66;4988247;28;20210;-65
2022/09/15 02:08:12;;;;;;;2.70;1.90;;;;;;;20.18;100.00;99407.25;4988610;28;20202;-65
2022/09/15 02:10:46;;;;;;;3.93;1.97;;;;;;;20.14;100.00;99404.19;4988592;28;20244;-65
2022/09/15 02:13:21;;;;;;;4.53;2.20;;;;;;;20.11;100.00;99406.56;4985082;28;20210;-65
2022/09/15 02:15:56;;;;;;;3.57;2.00;;;;;;;20.13;100.00;99405.28;4986425;28;20214;-65
2022/09/15 02:18:33;;;;;;;4.60;2.17;;;;;;;20.17;100.00;99400.22;4985228;28;20213;-65
2022/09/15 02:21:09;;;;;;;4.53;2.43;;;;;;;20.22;100.00;99393.09;4985253;28;20213;-65
2022/09/15 02:23:42;;;;;;;6.00;2.67;;;;;;;20.28;100.00;99402.09;4987480;28;20205;-65
2022/09/15 02:26:13;;;;;;;4.10;2.43;;;;;;;20.31;100.00;99401.63;4985305;28;20214;-65
2022/09/15 02:28:43;;;;;;;5.57;2.60;;;;;;;20.36;100.00;99398.22;4986079;28;20264;-65
2022/09/15 02:31:16;;;;;;;4.77;2.77;;;;;;;20.40;100.00;99397.53;4983776;28;20234;-65
2022/09/15 02:33:50;;;;;;;7.20;3.57;;;;;;;20.45;100.00;99397.63;4984439;28;20245;-65
2022/09/15 02:36:21;;;;;;;6.33;3.33;;;;;;;20.46;100.00;99391.19;4988199;28;20242;-65
2022/09/15 02:38:53;;;;;;;6.33;3.90;;;;;;;20.49;100.00;99398.78;4984943;28;20214;-65
2022/09/15 02:41:23;;;;;;;4.37;2.93;;;;;;;20.54;100.00;99398.06;4986845;28;20604;-65
2022/09/15 02:43:51;;;;;;;8.93;3.50;;;;;;;20.56;100.00;99399.47;4986986;28;20300;-65
2022/09/15 02:46:21;;;;;;;7.07;3.10;;;;;;;20.61;100.00;99402.25;4988177;28;20210;-65
2022/09/15 02:48:49;;;;;;;5.30;3.50;;;;;;;20.59;100.00;99393.59;4985035;28;20624;-65
2022/09/15 02:51:17;;;;;;;7.87;4.63;;;;;;;20.61;100.00;99402.25;4987412;28;20702;-65
2022/09/15 02:53:45;;;;;;;6.00;4.00;;;;;;;20.60;100.00;99405.19;4987575;28;20210;-65
2022/09/15 02:56:15;;;;;;;7.63;4.47;;;;;;;20.59;100.00;99398.97;4987072;28;20273;-65
2022/09/15 02:58:43;;;;;;;7.87;4.50;;;;;;;20.60;100.00;99403.31;4988478;28;20214;-65
2022/09/15 03:01:13;;;;;;;7.50;4.67;;;;;;;20.63;100.00;99400.16;4991754;28;20206;-65
2022/09/15 03:03:44;;;;;;;6.80;4.97;;;;;;;20.61;100.00;99410.34;4989349;28;20221;-65
2022/09/15 03:06:16;;;;;;;5.90;3.93;;;;;;;20.63;100.00;99415.50;4987489;28;20209;-65
2022/09/15 03:08:49;;;;;;;8.37;4.80;;;;;;;20.62;100.00;99430.00;4985065;28;20215;-65
2022/09/15 03:11:19;;;;;;;12.93;5.00;;;;;;;20.63;100.00;99421.69;4990017;28;20229;-65
2022/09/15 03:13:48;;;;;;;7.33;4.60;;;;;;;20.66;100.00;99425.81;4988230;28;20209;-65
2022/09/15 03:16:16;;;;;;;8.03;4.73;;;;;;;20.70;100.00;99428.81;4986773;28;20214;-65
2022/09/15 03:18:45;;;;;;;9.73;4.80;;;;;;;20.73;100.00;99436.44;4985409;28;20238;-65
2022/09/15 03:21:14;;;;;;;6.53;4.40;;;;;;;20.71;100.00;99436.66;4987175;28;20217;-65
2022/09/15 03:23:42;;;;;;;10.43;5.47;;;;;;;20.71;100.00;99438.53;4988653;28;20339;-65
2022/09/15 03:26:11;;;;;;;7.00;4.30;;;;;;;20.71;100.00;99442.06;4991425;28;20210;-65
2022/09/15 03:28:39;;;;;;;4.67;3.40;;;;;;;20.71;100.00;99443.94;4987869;28;20257;-65
2022/09/15 03:31:08;;;;;;;4.37;2.60;;;;;;;20.71;100.00;99443.94;4989269;28;20234;-65
2022/09/15 03:33:36;;;;;;;4.07;1.70;;;;;;;20.70;100.00;99448.50;4988513;28;20245;-65
2022/09/15 03:36:06;;;;;;;3.50;1.50;;;;;;;20.69;100.00;99446.03;4986321;28;20265;-68
2022/09/15 03:38:34;;;;;;;3.23;1.20;;;;;;;20.64;100.00;99447.59;4985178;28;20199;-65
2022/09/15 03:41:03;;;;;;;4.77;1.30;;;;;;;20.64;100.00;99449.47;4987472;28;20214;-66
2022/09/15 03:43:32;;;;;;;1.60;0.97;;;;;;;20.60;100.00;99454.50;4988588;28;20213;-65
2022/09/15 03:46:00;;;;;;;3.20;1.40;;;;;;;20.61;99.81;99449.91;4984863;28;20277;-65
2022/09/15 03:48:31;;;;;;;1.47;0.90;;;;;;;20.59;99.17;99455.53;4985800;28;20277;-65
2022/09/15 03:50:59;;;;;;;2.20;1.00;;;;;;;20.58;98.79;99461.97;4988267;28;20694;-65
2022/09/15 03:53:30;;;;;;;1.63;0.80;;;;;;;20.56;98.50;99464.13;5002447;28;20213;-65
2022/09/15 03:56:07;;;;;;;2.20;0.80;;;;;;;20.53;98.53;99461.88;4992169;28;20212;-66
2022/09/15 03:58:36;;;;;;;4.83;1.20;;;;;;;20.53;98.24;99463.75;4989465;28;20214;-65
2022/09/15 04:01:04;;;;;;;2.67;1.47;;;;;;;20.53;97.76;99469.16;4989183;28;20217;-65
2022/09/15 04:03:32;;;;;;;2.70;1.40;;;;;;;20.51;98.27;99471.25;4988427;28;20718;-65
2022/09/15 04:05:59;;;;;;;2.30;1.00;;;;;;;20.50;98.06;99475.81;4990561;28;20261;-65
2022/09/15 04:08:28;;;;;;;3.37;1.00;;;;;;;20.50;98.30;99480.38;4990118;28;20214;-65
2022/09/15 04:10:56;;;;;;;4.67;1.37;;;;;;;20.48;98.48;99477.94;4988806;28;20222;-65
2022/09/15 04:13:24;;;;;;;4.13;1.40;;;;;;;20.50;98.30;99477.69;4988151;28;20221;-64
2022/09/15 04:15:59;;;;;;;2.93;1.47;;;;;;;20.46;98.58;99484.63;4988997;28;20240;-64
2022/09/15 04:18:28;;;;;;;2.27;1.17;;;;;;;20.43;98.83;99485.91;4988816;28;20755;-64
2022/09/15 04:20:59;;;;;;;1.90;1.17;;;;;;;20.47;97.76;99489.78;4987752;28;20210;-64
2022/09/15 04:23:28;;;;;;;3.27;1.40;;;;;;;20.47;96.88;99492.47;4988505;28;20210;-65
2022/09/15 04:25:56;;;;;;;2.17;1.27;;;;;;;20.45;95.67;99491.88;4988463;28;20922;-65
2022/09/15 04:28:24;;;;;;;3.13;1.83;;;;;;;20.36;94.84;99501.34;4990041;28;20210;-65
2022/09/15 04:30:53;;;;;;;3.43;1.77;;;;;;;20.30;93.96;99502.28;4990351;28;20306;-65
2022/09/15 04:33:21;;;;;;;3.70;2.20;;;;;;;20.18;93.55;99504.13;4986159;28;20275;-65
2022/09/15 04:35:48;;;;;;;4.93;2.50;;;;;;;20.17;94.09;99499.81;4990153;28;20210;-64
2022/09/15 04:38:16;;;;;;;5.30;3.00;;;;;;;20.15;93.68;99500.03;4988937;28;20214;-64
2022/09/15 04:40:45;;;;;;;5.80;3.30;;;;;;;20.13;93.41;99501.34;4989314;28;20786;-64
2022/09/15 04:43:13;;;;;;;5.47;3.63;;;;;;;20.07;93.52;99508.44;4984742;28;20783;-65
2022/09/15 04:45:40;;;;;;;5.13;3.43;;;;;;;20.09;92.99;99505.53;4988436;28;20202;-65
2022/09/15 04:48:08;;;;;;;4.60;3.30;;;;;;;20.07;92.16;99513.00;4983987;28;20214;-65
2022/09/15 04:50:36;;;;;;;6.77;3.57;;;;;;;20.03;92.36;99509.16;4982803;28;20237;-66
2022/09/15 04:53:03;;;;;;;8.17;4.33;;;;;;;20.00;92.40;99512.31;4985288;28;20663;-65
2022/09/15 04:55:32;;;;;;;7.83;4.23;;;;;;;20.00;92.27;99517.69;4988243;28;20260;-65
2022/09/15 04:58:02;;;;;;;5.40;3.83;;;;;;;19.97;91.93;99515.44;4987266;28;20224;-65
2022/09/15 05:00:30;;;;;;;7.87;3.90;;;;;;;19.87;91.91;99514.19;4982818;28;20214;-65
2022/09/15 05:02:59;;;;;;;8.90;4.47;;;;;;;19.85;92.30;99508.22;4987504;28;20214;-65
2022/09/15 05:05:26;;;;;;;7.13;4.40;;;;;;;19.87;92.52;99513.34;4985077;28;20233;-65
2022/09/15 05:07:54;;;;;;;9.37;4.80;;;;;;;19.84;92.56;99514.63;4986707;28;20268;-64
2022/09/15 05:10:22;;;;;;;8.13;4.93;;;;;;;19.81;92.56;99523.16;4981194;28;20206;-64
2022/09/15 05:12:49;;;;;;;8.03;4.70;;;;;;;19.83;92.63;99522.94;4989565;28;20309;-65
2022/09/15 05:15:18;;;;;;;6.73;4.97;;;;;;;19.85;92.38;99536.97;4983607;28;20210;-66
2022/09/15 05:17:46;;;;;;;7.63;5.50;;;;;;;19.83;92.29;99539.88;4985396;28;20218;-65
2022/09/15 05:20:13;;;;;;;8.20;5.70;;;;;;;19.81;91.91;99541.97;4984763;28;20209;-64
2022/09/15 05:22:41;;;;;;;8.27;5.83;;;;;;;19.83;90.80;99539.88;4984779;28;20206;-65
2022/09/15 05:25:10;;;;;;;9.40;7.00;;;;;;;19.78;91.08;99538.94;4984299;28;20221;-66
2022/09/15 05:27:38;;;;;;;9.63;7.17;;;;;;;19.78;90.50;99542.47;4986648;28;20221;-67
2022/09/15 05:30:07;;;;;;;10.20;6.70;;;;;;;19.77;90.25;99540.81;4984996;28;20221;-65
2022/09/15 05:32:56;;;;;;;11.97;7.63;;;;;;;19.73;90.51;99539.63;4985414;28;20722;-64
2022/09/15 05:35:24;;;;;;;12.67;8.87;;;;;;;19.75;90.10;99548.28;4987288;28;20265;-66
2022/09/15 05:37:51;;;;;;;14.80;9.83;;;;;;;19.71;89.93;99563.22;4985989;28;20218;-65
2022/09/15 05:40:20;;;;;;;15.33;11.27;;;;;;;19.64;89.46;99572.44;4982708;28;20249;-66
2022/09/15 05:42:48;;;;;;;14.23;11.20;;;;;;;19.61;89.27;99576.44;4990161;28;20256;-65
2022/09/15 05:45:17;;;;;;;19.43;12.07;;;;;;;19.59;88.80;99589.28;4991150;28;20300;-65
2022/09/15 05:47:46;;;;;;;17.33;12.13;;;;;;;19.58;89.20;99584.13;4986226;28;20214;-65
2022/09/15 05:50:15;;;;;;;17.57;12.23;;;;;;;19.56;88.69;99586.22;4985979;28;20221;-65
2022/09/15 05:52:43;;;;;;;18.90;14.13;;;;;;;19.57;88.89;99593.25;4988169;28;20289;-65
2022/09/15 05:55:10;;;;;;;19.57;13.97;;;;;;;19.53;88.31;99595.56;4988032;28;20218;-66
2022/09/15 05:57:38;;;;;;;19.67;14.00;;;;;;;19.49;88.75;99591.69;4992609;28;20280;-66
2022/09/15 06:00:07;;;;;;;22.00;15.07;;;;;;;19.45;89.32;99596.66;4990138;28;20221;-65
2022/09/15 06:02:35;;;;;;;22.13;14.53;;;;;;;19.41;88.72;99602.72;4988847;28;20207;-64
2022/09/15 06:05:03;;;;;;;18.70;13.43;;;;;;;19.43;88.21;99606.03;4988032;28;20917;-65
2022/09/15 06:07:32;;;;;;;21.97;14.37;;;;;;;19.38;88.56;99600.47;4989726;28;20268;-65
2022/09/15 06:10:00;;;;;;;22.13;14.33;;;;;;;19.37;88.30;99615.78;4992295;28;20604;-65
2022/09/15 06:12:28;;;;;;;21.07;13.73;;;;;;;19.36;88.38;99607.94;4995704;28;20237;-65
2022/09/15 06:14:55;;;;;;;29.20;14.77;;;;;;;19.35;88.57;99607.13;4991827;28;20206;-65
2022/09/15 06:17:23;;;;;;;22.33;14.00;;;;;;;19.34;88.23;99604.69;4990519;28;20218;-65
2022/09/15 06:19:51;;;;;;;18.57;13.27;;;;;;;19.35;87.59;99595.56;4991449;28;20272;-65
2022/09/15 06:22:18;;;;;;;21.00;12.03;;;;;;;19.34;87.82;99607.38;4990028;28;20250;-65
2022/09/15 06:24:48;;;;;;;13.53;9.47;;;;;;;19.28;87.58;99611.75;4988440;28;20214;-65
2022/09/15 06:27:15;;;;;;;12.53;8.63;;;;;;;19.28;86.99;99613.63;4989372;28;20796;-65
2022/09/15 06:29:43;;;;;;;13.60;8.07;;;;;;;19.29;86.90;99623.34;4990648;28;20217;-65
2022/09/15 06:32:11;;;;;;;13.80;7.50;;;;;;;19.29;86.57;99617.97;4983537;28;20249;-65
2022/09/15 06:34:38;;;;;;;12.13;7.43;;;;;;;19.27;87.13;99620.03;4986916;28;20214;-65
2022/09/15 06:37:06;;;;;;;11.27;7.60;;;;;;;19.24;87.23;99628.56;4986353;28;20225;-66
2022/09/15 06:39:34;;;;;;;14.83;8.20;;;;;;;19.21;87.65;99637.06;4986964;28;22144;-66
2022/09/15 06:42:04;;;;;;;12.50;7.50;;;;;;;19.21;88.32;99642.44;4988034;28;20198;-66
2022/09/15 06:44:32;;;;;;;12.37;7.23;;;;;;;19.18;88.33;99647.22;4986805;28;20206;-66
2022/09/15 06:47:00;;;;;;;12.43;7.67;;;;;;;19.18;88.15;99644.53;4987243;28;20210;-65
2022/09/15 06:49:28;;;;;;;11.23;7.10;;;;;;;19.21;88.31;99658.56;4986067;28;20218;-66
2022/09/15 06:51:56;;;;;;;11.73;7.80;;;;;;;19.18;88.50;99655.28;4988979;28;20236;-65
2022/09/15 06:54:24;;;;;;;14.80;8.37;;;;;;;19.15;88.23;99655.75;4989017;28;21245;-65
2022/09/15 06:56:51;;;;;;;15.10;8.07;;;;;;;19.07;89.23;99656.06;4989065;28;20214;-66
2022/09/15 06:59:22;;;;;;;14.03;7.77;;;;;;;19.03;90.27;99656.69;4988030;28;20241;-66
2022/09/15 07:01:53;;;;;;;14.87;8.00;;;;;;;19.05;90.01;99660.00;4989879;28;20210;-66
2022/09/15 07:04:21;;;;;;;12.03;7.53;;;;;;;19.05;89.35;99671.56;4990387;28;20216;-66
2022/09/15 07:06:50;;;;;;;13.50;7.93;;;;;;;19.08;89.42;99675.69;4988926;28;20202;-65
2022/09/15 07:09:18;;;;;;;12.47;8.07;;;;;;;19.11;89.81;99685.97;4988242;28;20210;-65
2022/09/15 07:11:46;;;;;;;14.10;8.60;;;;;;;19.12;90.22;99688.44;4994792;28;20218;-65
2022/09/15 07:14:13;;;;;;;15.67;9.20;;;;;;;19.10;89.83;99685.13;4990368;28;20214;-66
2022/09/15 07:16:42;;;;;;;13.60;8.37;;;;;;;19.11;89.28;99689.47;4987329;28;21937;-65
2022/09/15 07:19:10;;;;;;;14.97;10.47;;;;;;;19.12;88.85;99691.13;4988089;28;20293;-66
2022/09/15 07:21:38;;;;;;;15.60;11.37;;;;;;;19.15;89.50;99695.25;4988560;28;20292;-66
2022/09/15 07:24:06;;;;;;;16.80;11.57;;;;;;;19.15;89.57;99688.00;4989211;28;20219;-66
2022/09/15 07:26:34;;;;;;;23.80;11.53;;;;;;;19.20;89.24;99684.63;4990168;28;20273;-66
2022/09/15 07:29:04;;;;;;;18.97;12.93;;;;;;;19.21;89.96;99693.50;4992602;28;20269;-66
2022/09/15 07:31:33;;;;;;;21.53;13.53;;;;;;;19.21;90.32;99691.66;4989145;28;20214;-66
2022/09/15 07:34:03;;;;;;;19.10;13.47;;;;;;;19.20;90.86;99692.69;4991027;28;20249;-66
2022/09/15 07:36:31;;;;;;;21.43;13.50;;;;;;;19.18;91.91;99703.66;4989337;28;20209;-66
2022/09/15 07:38:59;;;;;;;20.50;13.77;;;;;;;19.22;91.70;99703.22;4983501;28;20625;-66
2022/09/15 07:41:28;;;;;;;23.80;14.03;;;;;;;19.21;92.05;99713.16;4988708;28;20663;-66
2022/09/15 07:43:58;;;;;;;22.63;14.60;;;;;;;19.23;92.93;99715.63;4987123;28;20636;-66
2022/09/15 07:46:27;;;;;;;19.47;14.07;;;;;;;19.18;94.59;99717.09;4987896;28;20221;-66
2022/09/15 07:48:55;;;;;;;21.40;12.87;;;;;;;19.15;94.75;99719.44;4989529;28;20209;-67
2022/09/15 07:51:25;;;;;;;26.00;13.83;;;;;;;19.10;94.08;99714.69;4987069;28;20209;-67
2022/09/15 07:53:53;;;;;;;19.93;12.60;;;;;;;19.20;93.38;99716.06;4985230;28;20356;-66
2022/09/15 07:56:22;;;;;;;16.13;10.83;;;;;;;19.30;91.03;99711.00;4985400;28;20202;-66
2022/09/15 07:58:50;;;;;;;15.87;10.77;;;;;;;19.33;89.30;99713.25;4993344;28;20210;-65
2022/09/15 08:01:21;;;;;;;14.90;10.00;;;;;;;19.33;88.83;99715.94;4985795;28;20210;-65
2022/09/15 08:03:50;;;;;;;15.60;10.00;;;;;;;19.32;89.11;99714.28;4985948;28;20273;-67
2022/09/15 08:06:20;;;;;;;18.80;9.80;;;;;;;19.33;88.96;99714.06;4985726;28;20206;-66
2022/09/15 08:08:50;;;;;;;16.43;11.47;;;;;;;19.41;89.28;99721.00;4986563;28;20209;-66
2022/09/15 08:11:23;;;;;;;17.23;10.27;;;;;;;19.42;89.67;99725.34;4989782;28;20197;-67
2022/09/15 08:13:51;;;;;;;14.30;9.37;;;;;;;19.42;89.16;99725.34;4988960;28;20230;-66
2022/09/15 08:16:21;;;;;;;15.03;8.97;;;;;;;19.47;88.84;99722.78;4990277;28;20265;-66
2022/09/15 08:18:51;;;;;;;14.27;8.63;;;;;;;19.47;89.13;99725.50;4987740;28;20221;-67
2022/09/15 08:21:20;;;;;;;13.77;9.43;;;;;;;19.49;88.70;99737.69;4985237;28;20264;-67
2022/09/15 08:23:52;;;;;;;13.37;8.20;;;;;;;19.54;88.14;99745.09;4985671;28;20206;-68
2022/09/15 08:26:20;;;;;;;11.93;8.87;;;;;;;19.52;87.61;99752.56;4989486;28;20217;-65
2022/09/15 08:28:48;;;;;;;18.63;8.63;;;;;;;19.56;86.93;99756.44;4988242;28;20213;-65
2022/09/15 08:31:16;;;;;;;12.90;8.33;;;;;;;19.60;86.69;99754.16;4989732;28;20221;-65
2022/09/15 08:33:48;;;;;;;10.30;6.93;;;;;;;19.61;87.11;99751.25;4987714;28;20786;-66
2022/09/15 08:36:15;;;;;;;12.10;7.63;;;;;;;19.65;87.64;99754.28;4990422;28;20210;-66
2022/09/15 08:38:45;;;;;;;10.13;6.80;;;;;;;19.67;86.16;99744.94;4988799;28;20213;-65
2022/09/15 08:41:21;;;;;;;14.10;7.43;;;;;;;19.70;85.98;99749.06;4984769;28;20206;-65
2022/09/15 08:43:56;;;;;;;12.40;7.37;;;;;;;19.68;86.24;99745.78;4989600;28;20206;-66
2022/09/15 08:46:31;;;;;;;11.33;5.13;;;;;;;19.72;85.51;99752.31;4989254;28;20253;-66
2022/09/15 08:49:06;;;;;;;8.13;3.87;;;;;;;19.81;83.80;99754.50;4987732;28;20208;-65
2022/09/15 08:51:40;;;;;;;6.17;3.23;;;;;;;19.85;81.63;99763.78;4985494;28;20202;-66
2022/09/15 08:54:14;;;;;;;6.20;2.50;;;;;;;19.86;79.98;99762.72;4987106;28;20268;-67
2022/09/15 08:56:44;;;;;;;7.90;2.30;;;;;;;19.86;78.75;99760.03;4989132;28;20205;-66
2022/09/15 08:59:14;;;;;;;8.10;2.43;;;;;;;19.85;78.53;99768.31;4989482;28;20281;-66
2022/09/15 09:02:05;;;;;;;4.03;1.80;;;;;;;19.83;77.80;99767.72;4988576;28;20210;-66
2022/09/15 09:04:59;;;;;;;6.87;2.13;;;;;;;19.79;77.88;99770.03;4989323;28;20570;-66
2022/09/15 09:07:43;;;;;;;3.77;2.07;;;;;;;19.78;77.08;99773.78;4963487;28;20214;-66
2022/09/15 09:10:17;;;;;;;5.20;1.87;;;;;;;19.75;76.78;99779.63;4990697;28;20209;-66
2022/09/15 09:13:05;;;;;;;3.53;1.63;;;;;;;19.72;76.92;99771.97;4990981;28;20206;-66
2022/09/15 09:15:46;;;;;;;8.37;2.20;;;;;;;19.72;77.22;99771.97;4992366;28;20284;-65
2022/09/15 09:18:37;;;;;;;4.40;1.60;;;;;;;19.69;77.20;99769.75;4989209;28;20206;-65
2022/09/15 09:21:15;;;;;;;5.73;2.07;;;;;;;19.70;77.87;99778.66;4989720;28;20209;-65
2022/09/15 09:23:48;;;;;;;7.27;1.93;;;;;;;19.68;77.68;99772.66;4992018;28;20261;-66
2022/09/15 09:26:16;;;;;;;4.13;1.80;;;;;;;19.69;78.02;99768.94;4990207;28;20214;-66
2022/09/15 09:28:52;;;;;;;6.07;1.83;;;;;;;19.72;77.78;99769.28;4992309;28;20224;-65
2022/09/15 09:31:23;;;;;;;3.03;1.87;;;;;;;19.73;78.28;99783.56;4991434;28;20211;-65
2022/09/15 09:33:56;;;;;;;5.60;1.80;;;;;;;19.74;77.92;99786.03;4989244;28;20246;-64
2022/09/15 09:36:23;;;;;;;7.10;2.27;;;;;;;19.73;76.91;99791.63;4990332;28;20217;-65
2022/09/15 09:38:51;;;;;;;6.27;2.10;;;;;;;19.71;76.82;99791.03;4992250;28;20221;-66
2022/09/15 09:41:24;;;;;;;6.73;2.40;;;;;;;19.75;76.13;99800.31;4990036;28;20218;-65
2022/09/15 09:43:55;;;;;;;7.93;2.53;;;;;;;19.80;74.67;99793.19;4992214;28;20271;-64
2022/09/15 09:46:23;;;;;;;6.70;2.07;;;;;;;19.79;73.92;99794.25;4989351;28;20206;-65
2022/09/15 09:48:56;;;;;;;5.80;2.17;;;;;;;19.80;73.06;99795.88;4992813;28;20236;-65
2022/09/15 09:51:31;;;;;;;5.67;1.97;;;;;;;19.83;74.10;99802.69;4990392;28;20258;-65
2022/09/15 09:54:06;;;;;;;5.53;2.10;;;;;;;19.87;73.35;99798.53;4992192;28;20232;-65
2022/09/15 09:56:34;;;;;;;5.90;2.00;;;;;;;19.89;71.62;99797.22;4991074;28;20241;-65
2022/09/15 09:59:03;;;;;;;9.97;2.03;;;;;;;19.95;75.18;99794.72;4992673;28;20218;-65
2022/09/15 10:01:31;;;;;;;3.67;2.00;;;;;;;19.98;75.96;99799.63;4992358;28;20207;-66
2022/09/15 10:04:17;;;;;;;5.07;2.30;;;;;;;20.06;76.13;99802.00;4992747;28;20555;-66
2022/09/15 10:06:46;;;;;;;2.63;1.83;;;;;;;20.10;74.88;99800.50;4991090;28;20210;-66
2022/09/15 10:09:17;;;;;;;4.60;2.10;;;;;;;20.20;73.52;99800.81;4991215;28;20218;-65
2022/09/15 10:11:46;;;;;;;6.73;2.43;;;;;;;20.33;73.39;99803.31;4990594;28;20262;-65
2022/09/15 10:14:21;;;;;;;7.03;2.90;;;;;;;20.50;71.42;99808.91;4989227;28;20253;-66
2022/09/15 10:16:57;;;;;;;9.13;3.40;;;;;;;20.56;71.45;99810.72;4989418;28;20206;-68
2022/09/15 10:19:26;;;;;;;8.40;3.33;;;;;;;20.65;69.54;99804.78;4986579;28;20270;-68
2022/09/15 10:21:54;;;;;;;8.83;4.20;;;;;;;20.75;70.29;99795.31;4988265;28;20317;-68
2022/09/15 10:24:36;;;;;;;6.03;3.87;;;;;;;20.86;70.05;99811.50;4986313;28;20635;-66
2022/09/15 10:27:08;;;;;;;7.03;3.30;;;;;;;20.94;69.63;99813.03;4986227;28;20218;-66
2022/09/15 10:29:40;;;;;;;7.63;3.30;;;;;;;21.02;71.55;99810.03;4990326;28;20210;-66
2022/09/15 10:32:23;;;;;;;6.83;2.53;;;;;;;21.06;69.35;99819.25;4985246;28;20292;-66
2022/09/15 10:35:14;;;;;;;10.40;3.70;;;;;;;21.17;66.35;99810.41;4991141;28;20287;-66
2022/09/15 10:37:59;;;;;;;7.20;3.03;;;;;;;21.27;65.96;99815.22;4986493;28;20823;-66
2022/09/15 10:40:39;;;;;;;7.57;4.03;;;;;;;21.43;65.61;99819.09;4989481;28;20214;-65
2022/09/15 10:43:22;;;;;;;5.60;4.00;;;;;;;21.58;64.10;99822.97;4990198;28;20209;-66
2022/09/15 10:46:00;;;;;;;7.63;3.83;;;;;;;21.60;62.79;99826.25;4989707;28;20202;-67
2022/09/15 10:48:37;;;;;;;6.97;4.23;;;;;;;21.69;63.02;99821.31;4987600;28;20214;-66
2022/09/15 10:51:20;;;;;;;8.50;4.50;;;;;;;21.70;62.50;99813.00;4990275;28;20206;-65
2022/09/15 10:54:17;;;;;;;7.60;4.60;;;;;;;21.79;62.23;99813.44;4989050;28;20233;-66
2022/09/15 10:56:48;;;;;;;7.20;4.47;;;;;;;22.03;61.40;99808.84;4985659;28;20214;-66
2022/09/15 10:59:26;;;;;;;7.47;4.53;;;;;;;22.13;59.21;99809.06;4987774;28;20218;-66
2022/09/15 11:02:13;;;;;;;6.33;4.00;;;;;;;22.07;59.48;99808.16;4986420;28;20277;-65
2022/09/15 11:05:13;;;;;;;6.97;4.03;;;;;;;22.05;58.22;99802.16;4989772;28;20217;-66
2022/09/15 11:07:54;;;;;;;8.00;4.40;;;;;;;22.12;60.82;99804.72;4986528;28;20218;-66
2022/09/15 11:10:29;;;;;;;12.77;4.13;;;;;;;22.19;59.94;99799.19;4992643;28;20210;-66
2022/09/15 11:13:11;;;;;;;9.27;4.20;;;;;;;22.23;59.03;99797.66;4988605;28;20289;-66
2022/09/15 11:15:53;;;;;;;8.17;3.80;;;;;;;22.21;58.34;99808.69;4987543;28;20233;-67
2022/09/15 11:18:49;;;;;;;8.90;4.03;;;;;;;22.12;60.11;99802.84;4988172;28;20269;-66
2022/09/15 11:21:27;;;;;;;9.03;4.63;;;;;;;22.05;60.64;99804.03;4986539;28;20674;-67
2022/09/15 11:24:11;;;;;;;9.23;4.80;;;;;;;22.68;57.68;99812.03;4987055;28;20628;-65
2022/09/15 11:26:43;;;;;;;8.30;5.17;;;;;;;22.78;57.36;99801.41;4989813;28;20210;-68
2022/09/15 11:29:15;;;;;;;9.93;6.20;;;;;;;22.56;58.61;99797.75;4988804;28;20210;-70
2022/09/15 11:31:47;;;;;;;10.02;5.78;;;;;;;22.33;58.59;99814.06;4988696;28;20214;-67
2022/09/15 11:34:21;;;;;;;8.75;5.63;;;;;;;22.39;57.23;99807.69;4987456;28;20376;-66
2022/09/15 11:36:54;;;;;;;8.95;5.82;;;;;;;22.45;57.00;99818.34;4987930;28;20841;-67
2022/09/15 11:39:24;;;;;;;8.70;6.13;;;;;;;23.49;55.10;99802.56;4987372;28;20202;-67
2022/09/15 11:41:56;;;;;;;12.63;7.13;;;;;;;25.28;50.13;99795.38;4986934;28;20200;-66
2022/09/15 11:44:29;;;;;;;10.73;5.90;;;;;;;26.10;49.05;99794.78;4987518;28;20202;-67
2022/09/15 11:47:07;;;;;;;7.72;5.60;;;;;;;25.96;48.45;99796.31;4985671;28;20648;-67
2022/09/15 11:49:44;;;;;;;8.63;5.10;;;;;;;25.56;48.65;99796.91;4988589;28;20256;-67